Time;durP1;ratioP1;P1;durP2;ratioP2;P2;SDS_P1;SDS_P2;PMS_P1;PMS_P2;Temp;Humidity;BMP_temperature;BMP_pressure;BME280_temperature;BME280_humidity;BME280_pressure;Samples;Min_cycle;Max_cycle;Signal;HPM_P1;HPM_P2
2021/10/05 00:01:05;;;;;;;19.10;17.10;;;11.90;99.90;;;;;;6246171;22;20237;-94
2021/10/05 00:03:31;;;;;;;19.53;16.40;;;11.90;99.90;;;;;;6244457;22;20166;-93
2021/10/05 00:05:56;;;;;;;20.70;18.07;;;12.00;99.90;;;;;;6245768;22;20170;-94
2021/10/05 00:08:24;;;;;;;20.00;17.80;;;11.90;99.90;;;;;;6247079;22;20162;-94
2021/10/05 00:11:01;;;;;;;19.50;16.53;;;11.80;99.90;;;;;;6245069;22;20185;-94
2021/10/05 00:13:26;;;;;;;17.60;15.70;;;11.80;99.90;;;;;;6243643;22;20405;-94
2021/10/05 00:15:55;;;;;;;19.30;16.60;;;11.90;99.90;;;;;;6269639;22;20392;-94
2021/10/05 00:18:21;;;;;;;19.07;16.30;;;11.90;99.90;;;;;;6246082;22;20393;-93
2021/10/05 00:23:58;;;;;;;20.07;17.60;;;11.80;99.90;;;;;;6271523;22;20544;-94
2021/10/05 00:26:28;;;;;;;19.63;16.80;;;11.90;99.90;;;;;;6245958;22;20435;-94
2021/10/05 00:28:58;;;;;;;23.23;18.10;;;11.80;99.90;;;;;;6245919;22;20389;-94
2021/10/05 00:31:24;;;;;;;21.53;17.20;;;11.90;99.90;;;;;;6272745;22;20438;-95
2021/10/05 00:33:50;;;;;;;20.73;17.23;;;11.90;99.90;;;;;;6246122;22;20399;-94
2021/10/05 00:36:16;;;;;;;19.87;16.90;;;11.90;99.90;;;;;;6245904;22;20158;-93
2021/10/05 00:38:41;;;;;;;19.63;16.53;;;11.90;99.90;;;;;;6248408;22;20563;-94
2021/10/05 00:41:07;;;;;;;18.73;16.40;;;11.90;99.90;;;;;;6248582;22;20190;-94
2021/10/05 00:43:36;;;;;;;20.50;17.10;;;12.00;99.90;;;;;;6245324;22;20625;-94
2021/10/05 00:46:08;;;;;;;19.00;16.00;;;12.00;99.90;;;;;;6271185;22;20167;-95
2021/10/05 00:48:35;;;;;;;18.60;16.40;;;12.10;99.90;;;;;;6244950;22;20464;-94
2021/10/05 00:51:01;;;;;;;18.83;14.17;;;12.00;99.90;;;;;;6245770;22;20437;-95
2021/10/05 00:53:30;;;;;;;18.73;16.23;;;12.00;99.90;;;;;;6245600;22;20503;-94
2021/10/05 00:56:06;;;;;;;15.57;13.97;;;11.90;99.90;;;;;;6242360;22;20443;-94
2021/10/05 00:58:32;;;;;;;17.97;15.20;;;12.00;99.90;;;;;;6246197;22;20515;-93
2021/10/05 01:01:00;;;;;;;16.17;14.57;;;12.00;99.90;;;;;;6244641;22;20453;-94
2021/10/05 01:03:26;;;;;;;15.90;13.63;;;12.00;99.90;;;;;;6240386;22;20185;-94
2021/10/05 01:05:53;;;;;;;16.80;14.20;;;12.00;99.90;;;;;;6244429;22;20420;-94
2021/10/05 01:08:22;;;;;;;17.67;15.33;;;12.00;99.90;;;;;;6239735;22;20935;-94
2021/10/05 01:10:48;;;;;;;18.40;15.67;;;12.10;99.90;;;;;;6244218;22;20448;-94
2021/10/05 01:13:13;;;;;;;18.10;15.17;;;12.10;99.90;;;;;;6244662;22;20947;-93
2021/10/05 01:15:39;;;;;;;19.43;16.40;;;12.00;99.90;;;;;;6245175;22;20189;-94
2021/10/05 01:18:06;;;;;;;19.17;15.87;;;11.90;99.90;;;;;;6244380;22;20162;-93
2021/10/05 01:20:57;;;;;;;18.80;16.20;;;11.90;99.90;;;;;;6244187;22;20170;-92
2021/10/05 01:23:24;;;;;;;18.90;15.80;;;11.90;99.90;;;;;;6245187;22;20393;-93
2021/10/05 01:25:50;;;;;;;21.70;14.97;;;11.90;99.90;;;;;;6244438;22;20397;-93
2021/10/05 01:28:24;;;;;;;18.83;15.20;;;11.90;99.90;;;;;;6243690;22;20416;-93
2021/10/05 01:30:50;;;;;;;19.77;14.77;;;11.90;99.90;;;;;;6244674;22;20445;-94
2021/10/05 01:33:19;;;;;;;16.07;13.70;;;11.90;99.90;;;;;;6245055;22;20906;-93
2021/10/05 01:35:44;;;;;;;17.40;14.40;;;11.90;99.90;;;;;;6244536;22;20393;-93
2021/10/05 01:38:10;;;;;;;16.37;13.57;;;11.90;99.90;;;;;;6243576;22;20396;-94
2021/10/05 01:40:36;;;;;;;15.67;13.17;;;11.90;99.90;;;;;;6245187;22;20215;-93
2021/10/05 01:43:04;;;;;;;15.00;12.90;;;11.90;99.90;;;;;;6242858;22;20165;-93
2021/10/05 01:45:33;;;;;;;16.90;13.33;;;11.90;99.90;;;;;;6243563;22;20525;-93
2021/10/05 01:47:59;;;;;;;15.10;13.17;;;11.90;99.90;;;;;;6244810;22;20408;-94
2021/10/05 01:50:37;;;;;;;20.73;14.20;;;12.00;99.90;;;;;;6270790;22;20436;-94
2021/10/05 01:53:07;;;;;;;18.90;15.47;;;11.90;99.90;;;;;;6245975;22;20416;-93
2021/10/05 01:55:45;;;;;;;20.67;15.80;;;11.90;99.90;;;;;;6243939;22;20403;-93
2021/10/05 01:58:10;;;;;;;22.23;16.07;;;11.80;99.90;;;;;;6244241;22;20870;-94
2021/10/05 02:00:36;;;;;;;23.93;18.23;;;11.70;99.90;;;;;;6244819;22;20267;-94
2021/10/05 02:03:13;;;;;;;21.93;16.77;;;11.70;99.90;;;;;;6243429;22;20154;-93
2021/10/05 02:05:47;;;;;;;21.90;15.97;;;11.60;99.90;;;;;;6245046;22;20392;-93
2021/10/05 02:08:15;;;;;;;21.63;16.20;;;11.60;99.90;;;;;;6238699;22;20401;-93
2021/10/05 02:10:42;;;;;;;21.77;16.80;;;11.70;99.90;;;;;;6247619;22;20463;-93
2021/10/05 02:13:08;;;;;;;20.37;16.13;;;11.70;99.90;;;;;;6245625;22;20158;-94
2021/10/05 02:15:35;;;;;;;19.43;15.77;;;11.70;99.90;;;;;;6244846;22;20450;-93
2021/10/05 02:18:02;;;;;;;20.90;16.60;;;11.80;99.90;;;;;;6245088;22;20809;-92
2021/10/05 02:20:28;;;;;;;21.90;17.40;;;11.80;99.90;;;;;;6244300;22;20409;-93
2021/10/05 02:22:54;;;;;;;20.57;15.70;;;11.70;99.90;;;;;;6245532;22;20403;-94
2021/10/05 02:28:15;;;;;;;19.80;15.30;;;11.80;99.90;;;;;;6274124;22;20241;-93
2021/10/05 02:30:42;;;;;;;21.50;16.83;;;11.80;99.90;;;;;;6245564;22;20437;-94
2021/10/05 02:33:08;;;;;;;21.30;15.90;;;11.70;99.90;;;;;;6248293;22;20400;-93
2021/10/05 02:35:33;;;;;;;17.87;14.30;;;11.70;99.90;;;;;;6244976;22;20405;-92
2021/10/05 02:37:59;;;;;;;18.00;14.50;;;11.70;99.90;;;;;;6246833;22;20204;-93
2021/10/05 02:40:27;;;;;;;18.97;14.07;;;11.80;99.90;;;;;;6246315;22;20600;-93
2021/10/05 02:42:53;;;;;;;18.10;13.50;;;11.80;99.90;;;;;;6245223;22;20170;-93
2021/10/05 02:45:19;;;;;;;18.17;14.00;;;11.80;99.90;;;;;;6245900;22;20454;-93
2021/10/05 02:47:44;;;;;;;17.00;13.60;;;11.90;99.90;;;;;;6247559;22;20235;-93
2021/10/05 02:50:10;;;;;;;16.67;13.57;;;11.80;99.90;;;;;;6246301;22;20201;-93
2021/10/05 02:52:36;;;;;;;18.80;16.00;;;11.90;99.90;;;;;;6246208;22;20490;-93
2021/10/05 02:55:02;;;;;;;18.67;14.27;;;11.80;99.90;;;;;;6246322;22;20238;-93
2021/10/05 02:57:30;;;;;;;20.33;14.90;;;11.80;99.90;;;;;;6246642;22;20177;-93
2021/10/05 02:59:56;;;;;;;19.07;14.87;;;11.70;99.90;;;;;;6245786;22;20407;-93
2021/10/05 03:02:22;;;;;;;21.50;16.03;;;11.70;99.90;;;;;;6246769;22;20385;-94
2021/10/05 03:04:47;;;;;;;19.70;16.00;;;11.70;99.90;;;;;;6244962;22;20170;-94
2021/10/05 03:07:13;;;;;;;23.23;16.70;;;11.70;99.90;;;;;;6246144;22;20162;-92
2021/10/05 03:09:39;;;;;;;22.13;15.90;;;11.70;99.90;;;;;;6247478;22;20261;-94
2021/10/05 03:12:05;;;;;;;21.97;16.03;;;11.70;99.90;;;;;;6247092;22;20429;-93
2021/10/05 03:14:31;;;;;;;21.43;15.73;;;11.70;99.90;;;;;;6246263;22;20393;-93
2021/10/05 03:16:56;;;;;;;20.17;14.70;;;11.60;99.90;;;;;;6246287;22;20863;-94
2021/10/05 03:19:22;;;;;;;24.63;18.20;;;11.60;99.90;;;;;;6246623;22;20513;-93
2021/10/05 03:21:48;;;;;;;22.23;15.80;;;11.60;99.90;;;;;;6246577;22;20498;-94
2021/10/05 03:24:13;;;;;;;21.37;16.10;;;11.60;99.90;;;;;;6246132;22;20169;-93
2021/10/05 03:26:39;;;;;;;25.43;17.30;;;11.70;99.90;;;;;;6246618;22;20186;-93
2021/10/05 03:29:05;;;;;;;24.23;16.00;;;11.80;99.90;;;;;;6246171;22;20190;-93
2021/10/05 03:31:31;;;;;;;25.03;17.17;;;11.80;99.90;;;;;;6246631;22;20193;-94
2021/10/05 03:33:59;;;;;;;22.07;16.07;;;11.80;99.90;;;;;;6246739;22;20452;-95
2021/10/05 03:36:27;;;;;;;21.77;16.53;;;11.80;99.90;;;;;;6244955;22;20158;-94
2021/10/05 03:39:00;;;;;;;20.37;16.10;;;11.80;99.90;;;;;;6250033;22;20488;-94
2021/10/05 03:44:07;;;;;;;21.20;15.53;;;11.80;99.90;;;;;;6273907;22;20385;-93
2021/10/05 03:46:32;;;;;;;22.90;16.67;;;11.70;99.90;;;;;;6246677;22;20396;-93
2021/10/05 03:48:58;;;;;;;25.73;17.07;;;11.60;99.90;;;;;;6245901;22;20562;-92
2021/10/05 03:51:24;;;;;;;24.27;16.83;;;11.60;99.90;;;;;;6245477;22;20205;-93
2021/10/05 03:53:51;;;;;;;22.10;15.67;;;11.60;99.90;;;;;;6244460;22;20158;-93
2021/10/05 03:56:16;;;;;;;23.10;15.97;;;11.60;99.90;;;;;;6245753;22;20494;-93
2021/10/05 03:58:42;;;;;;;25.17;16.83;;;11.60;99.90;;;;;;6246482;22;20391;-94
2021/10/05 04:01:08;;;;;;;20.23;15.17;;;11.60;99.90;;;;;;6246066;22;20182;-94
2021/10/05 04:03:33;;;;;;;22.30;14.60;;;11.60;99.90;;;;;;6246101;22;20225;-94
2021/10/05 04:05:59;;;;;;;23.67;15.30;;;11.60;99.90;;;;;;6245440;22;20166;-95
2021/10/05 04:08:25;;;;;;;22.50;14.80;;;11.50;99.90;;;;;;6246436;22;20419;-94
2021/10/05 04:10:51;;;;;;;20.77;15.83;;;11.60;99.90;;;;;;6245678;22;20190;-93
2021/10/05 04:13:17;;;;;;;20.87;14.67;;;11.60;99.90;;;;;;6246449;22;20162;-94
2021/10/05 04:15:43;;;;;;;21.33;14.57;;;11.60;99.90;;;;;;6246702;22;20604;-93
2021/10/05 04:18:15;;;;;;;20.30;14.27;;;11.60;99.90;;;;;;6245211;22;20216;-93
2021/10/05 04:20:41;;;;;;;20.43;14.40;;;11.60;99.90;;;;;;6245422;22;20755;-93
2021/10/05 04:23:07;;;;;;;21.67;15.50;;;11.60;99.90;;;;;;6246645;22;20421;-94
2021/10/05 04:25:34;;;;;;;22.40;14.87;;;11.60;99.90;;;;;;6272014;22;20166;-94
2021/10/05 04:28:00;;;;;;;20.03;13.90;;;11.60;99.90;;;;;;6245942;22;20393;-93
2021/10/05 04:30:30;;;;;;;20.13;14.17;;;11.50;99.90;;;;;;6245924;22;20768;-93
2021/10/05 04:32:56;;;;;;;23.10;15.53;;;11.50;99.90;;;;;;6246684;22;20162;-95
2021/10/05 04:37:53;;;;;;;18.90;14.37;;;11.60;99.90;;;;;;6271675;22;20166;-93
2021/10/05 04:40:20;;;;;;;19.17;12.67;;;11.60;99.90;;;;;;6246112;22;20384;-94
2021/10/05 04:42:46;;;;;;;22.33;14.80;;;11.70;99.90;;;;;;6245230;22;20166;-94
2021/10/05 04:45:12;;;;;;;20.40;14.50;;;11.70;99.90;;;;;;6245943;22;20402;-93
2021/10/05 04:47:38;;;;;;;20.80;13.40;;;11.70;99.90;;;;;;6245682;22;20158;-93
2021/10/05 04:50:06;;;;;;;20.70;13.73;;;11.60;99.90;;;;;;6245841;22;20265;-95
2021/10/05 04:52:32;;;;;;;21.23;14.87;;;11.50;99.90;;;;;;6246168;22;20170;-93
2021/10/05 04:54:57;;;;;;;18.87;13.50;;;11.50;99.90;;;;;;6245511;22;20737;-94
2021/10/05 04:57:23;;;;;;;17.37;12.40;;;11.50;99.90;;;;;;6246628;22;20500;-93
2021/10/05 04:59:53;;;;;;;15.70;11.90;;;11.60;99.90;;;;;;6244995;22;20194;-93
2021/10/05 05:02:19;;;;;;;25.20;12.80;;;11.60;99.90;;;;;;6271092;22;20605;-95
2021/10/05 05:04:47;;;;;;;16.57;12.30;;;11.60;99.90;;;;;;6245049;22;20526;-94
2021/10/05 05:07:15;;;;;;;16.50;11.67;;;11.70;99.90;;;;;;6271903;22;20300;-93
2021/10/05 05:09:42;;;;;;;15.90;11.90;;;11.70;99.90;;;;;;6255142;22;20432;-92
2021/10/05 05:12:10;;;;;;;18.20;12.03;;;11.70;99.90;;;;;;6247539;22;20472;-94
2021/10/05 05:14:36;;;;;;;14.60;10.73;;;11.70;99.90;;;;;;6244631;22;20381;-93
2021/10/05 05:17:03;;;;;;;16.00;11.03;;;11.70;99.90;;;;;;6245157;22;20958;-93
2021/10/05 05:19:36;;;;;;;16.10;11.83;;;11.70;99.90;;;;;;6245909;22;20300;-93
2021/10/05 05:22:09;;;;;;;14.13;10.73;;;11.70;99.90;;;;;;6246449;22;20424;-93
2021/10/05 05:24:34;;;;;;;15.10;11.13;;;11.90;99.90;;;;;;6266788;22;20715;-93
2021/10/05 05:27:02;;;;;;;13.80;11.00;;;11.80;99.90;;;;;;6272007;22;20942;-93
2021/10/05 05:29:28;;;;;;;15.33;10.93;;;11.80;99.90;;;;;;6271948;22;20423;-93
2021/10/05 05:31:58;;;;;;;13.10;10.07;;;11.80;99.90;;;;;;6244689;22;20476;-93
2021/10/05 05:34:24;;;;;;;13.43;9.87;;;11.80;99.90;;;;;;6244379;22;20159;-93
2021/10/05 05:36:52;;;;;;;12.10;9.30;;;11.80;99.90;;;;;;6218307;22;20393;-93
2021/10/05 05:39:17;;;;;;;8.97;7.60;;;11.90;99.90;;;;;;6245491;22;20472;-93
2021/10/05 05:41:46;;;;;;;11.07;7.80;;;12.10;99.90;;;;;;6245481;22;20477;-93
2021/10/05 05:44:13;;;;;;;5.53;4.90;;;12.10;99.90;;;;;;6244857;22;20147;-94
2021/10/05 05:46:39;;;;;;;7.27;6.20;;;12.10;99.90;;;;;;6244582;22;20400;-92
2021/10/05 05:49:05;;;;;;;10.03;8.20;;;12.10;99.90;;;;;;6244681;22;20396;-94
2021/10/05 05:51:31;;;;;;;12.20;9.60;;;12.00;99.90;;;;;;6245283;22;20752;-93
2021/10/05 05:53:56;;;;;;;13.83;10.33;;;11.90;99.90;;;;;;6219387;22;20173;-92
2021/10/05 05:56:22;;;;;;;10.47;8.17;;;11.90;99.90;;;;;;6244489;22;20166;-93
2021/10/05 05:58:52;;;;;;;12.50;9.50;;;12.00;99.90;;;;;;6272492;22;20308;-93
2021/10/05 06:01:21;;;;;;;14.47;9.97;;;12.10;99.90;;;;;;6243926;22;20769;-93
2021/10/05 06:03:49;;;;;;;10.60;9.10;;;12.00;99.90;;;;;;6246862;22;20396;-93
2021/10/05 06:06:17;;;;;;;12.50;9.40;;;12.00;99.90;;;;;;6247140;22;20805;-93
2021/10/05 06:08:43;;;;;;;11.37;10.00;;;12.20;99.90;;;;;;6246580;22;20879;-93
2021/10/05 06:11:09;;;;;;;12.30;9.57;;;12.20;99.90;;;;;;6246979;22;20444;-93
2021/10/05 06:13:36;;;;;;;13.50;10.40;;;12.20;99.90;;;;;;6246897;22;20389;-93
2021/10/05 06:16:01;;;;;;;12.37;10.70;;;12.10;99.90;;;;;;6244944;22;20878;-93
2021/10/05 06:18:28;;;;;;;15.83;13.10;;;12.10;99.90;;;;;;6247242;22;20450;-92
2021/10/05 06:20:54;;;;;;;12.40;10.63;;;12.10;99.90;;;;;;6246810;22;20169;-93
2021/10/05 06:23:19;;;;;;;13.20;9.83;;;12.10;99.90;;;;;;6247486;22;20475;-92
2021/10/05 06:25:45;;;;;;;10.57;8.37;;;12.10;99.90;;;;;;6245577;22;20184;-93
2021/10/05 06:28:11;;;;;;;10.20;8.20;;;12.10;99.90;;;;;;6246213;22;20239;-93
2021/10/05 06:30:38;;;;;;;10.63;8.70;;;12.10;99.90;;;;;;6243388;22;20440;-92
2021/10/05 06:33:04;;;;;;;12.10;9.90;;;12.10;99.90;;;;;;6246178;22;20170;-94
2021/10/05 06:35:30;;;;;;;12.87;10.60;;;12.10;99.90;;;;;;6244982;22;20396;-93
2021/10/05 06:37:58;;;;;;;11.00;9.27;;;12.40;99.90;;;;;;6248229;22;20393;-91
2021/10/05 06:40:31;;;;;;;8.70;7.80;;;12.50;99.90;;;;;;6252451;22;20419;-93
2021/10/05 06:42:57;;;;;;;8.37;7.47;;;12.50;99.90;;;;;;6247098;22;20388;-93
2021/10/05 06:45:23;;;;;;;8.10;7.30;;;12.40;99.90;;;;;;6246428;22;20450;-93
2021/10/05 06:47:49;;;;;;;10.17;7.83;;;12.40;99.90;;;;;;6248750;22;20475;-93
2021/10/05 06:50:16;;;;;;;8.80;7.80;;;12.40;99.90;;;;;;6247495;22;20265;-93
2021/10/05 06:52:42;;;;;;;9.30;7.47;;;12.30;99.90;;;;;;6252901;22;20165;-93
2021/10/05 06:55:09;;;;;;;7.97;5.97;;;12.40;99.90;;;;;;6249286;22;21357;-93
2021/10/05 06:57:35;;;;;;;6.30;5.70;;;12.40;99.90;;;;;;6246558;22;20784;-93
2021/10/05 07:00:00;;;;;;;7.30;6.20;;;12.50;99.90;;;;;;6245038;22;20401;-94
2021/10/05 07:02:26;;;;;;;7.97;7.17;;;12.60;99.90;;;;;;6247127;22;20162;-94
2021/10/05 07:04:52;;;;;;;8.73;6.90;;;12.60;99.90;;;;;;6247136;22;20249;-94
2021/10/05 07:07:17;;;;;;;8.80;7.30;;;12.70;99.90;;;;;;6246374;22;20193;-93
2021/10/05 07:12:17;;;;;;;8.07;7.27;;;12.70;99.90;;;;;;6273235;22;20229;-93
2021/10/05 07:14:51;;;;;;;11.63;7.40;;;12.60;99.90;;;;;;6246682;22;20396;-94
2021/10/05 07:17:25;;;;;;;7.77;7.03;;;12.60;99.90;;;;;;6244742;22;20400;-93
2021/10/05 07:19:51;;;;;;;8.40;7.27;;;12.50;99.90;;;;;;6271400;22;20727;-93
2021/10/05 07:22:16;;;;;;;7.73;6.93;;;12.50;99.90;;;;;;6244134;22;20397;-93
2021/10/05 07:24:42;;;;;;;9.40;7.50;;;12.50;99.90;;;;;;6273724;22;20471;-94
2021/10/05 07:27:08;;;;;;;9.30;8.03;;;12.50;99.90;;;;;;6245851;22;20624;-94
2021/10/05 07:29:34;;;;;;;8.97;7.37;;;12.60;99.90;;;;;;6245270;22;20190;-94
2021/10/05 07:32:19;;;;;;;9.80;7.83;;;12.80;99.90;;;;;;6272099;22;20397;-93
2021/10/05 07:34:47;;;;;;;9.60;8.50;;;12.70;99.90;;;;;;6245625;22;20391;-93
2021/10/05 07:37:16;;;;;;;10.57;9.17;;;12.80;99.90;;;;;;6244599;22;20397;-94
2021/10/05 07:39:44;;;;;;;11.20;9.37;;;12.80;99.90;;;;;;6247137;22;20778;-94
2021/10/05 07:42:13;;;;;;;11.37;9.57;;;12.80;99.90;;;;;;6246748;22;20167;-93
2021/10/05 07:44:42;;;;;;;9.57;8.23;;;12.90;99.90;;;;;;6245887;22;20393;-95
2021/10/05 07:47:08;;;;;;;10.40;8.53;;;13.00;99.90;;;;;;6247008;22;20397;-95
2021/10/05 07:49:36;;;;;;;8.83;7.80;;;13.20;99.90;;;;;;6245952;22;20429;-94
2021/10/05 07:52:07;;;;;;;11.30;8.03;;;13.50;99.90;;;;;;6246388;22;20401;-94
2021/10/05 07:57:17;;;;;;;9.10;7.90;;;13.20;99.90;;;;;;6273423;22;20389;-94
2021/10/05 07:59:43;;;;;;;10.07;8.70;;;13.10;99.90;;;;;;6246543;22;20484;-93
2021/10/05 08:02:08;;;;;;;11.47;8.97;;;13.10;99.90;;;;;;6244917;22;20177;-94
2021/10/05 08:04:37;;;;;;;9.63;8.63;;;13.00;99.90;;;;;;6246174;22;20162;-93
2021/10/05 08:07:03;;;;;;;9.00;8.03;;;12.90;99.90;;;;;;6246184;22;20619;-93
2021/10/05 08:09:28;;;;;;;10.60;8.57;;;12.90;99.90;;;;;;6250820;22;20428;-92
2021/10/05 08:11:54;;;;;;;9.70;8.70;;;13.00;99.90;;;;;;6248536;22;20166;-93
2021/10/05 08:14:19;;;;;;;10.63;7.57;;;13.00;99.90;;;;;;6245756;22;20165;-94
2021/10/05 08:16:46;;;;;;;9.20;8.07;;;13.00;99.90;;;;;;6246021;22;20173;-93
2021/10/05 08:19:12;;;;;;;9.67;8.50;;;13.00;99.90;;;;;;6245293;22;20162;-94
2021/10/05 08:21:38;;;;;;;10.00;8.77;;;13.10;99.90;;;;;;6246613;22;20438;-93
2021/10/05 08:24:04;;;;;;;9.67;8.43;;;13.10;99.90;;;;;;6244824;22;20484;-93
2021/10/05 08:26:29;;;;;;;9.50;8.27;;;13.20;99.90;;;;;;6245557;22;21576;-94
2021/10/05 08:28:55;;;;;;;7.60;6.80;;;13.20;99.90;;;;;;6246408;22;20393;-94
2021/10/05 08:31:21;;;;;;;8.30;6.80;;;13.20;99.90;;;;;;6245220;22;20162;-93
2021/10/05 08:33:47;;;;;;;7.60;6.90;;;13.20;99.90;;;;;;6246121;22;20523;-93
2021/10/05 08:36:13;;;;;;;8.13;7.33;;;13.10;99.90;;;;;;6246034;22;20170;-94
2021/10/05 08:38:40;;;;;;;8.10;7.30;;;13.10;99.90;;;;;;6245574;22;20776;-93
2021/10/05 08:41:07;;;;;;;8.90;8.00;;;13.40;99.90;;;;;;6244740;22;20205;-94
2021/10/05 08:43:33;;;;;;;7.17;6.57;;;13.50;99.90;;;;;;6245750;22;20890;-94
2021/10/05 08:46:00;;;;;;;8.50;7.60;;;13.60;99.90;;;;;;6244581;22;20392;-93
2021/10/05 08:48:37;;;;;;;7.40;6.70;;;13.80;99.90;;;;;;6245405;22;20492;-93
2021/10/05 08:51:04;;;;;;;7.60;6.90;;;13.90;99.90;;;;;;6245259;22;20446;-93
2021/10/05 08:53:31;;;;;;;8.93;8.07;;;14.10;99.90;;;;;;6269206;22;20389;-93
2021/10/05 08:55:58;;;;;;;8.73;7.33;;;14.20;99.90;;;;;;6243674;22;20401;-93
2021/10/05 08:58:26;;;;;;;6.47;5.87;;;14.20;99.90;;;;;;6245550;22;20384;-94
2021/10/05 09:01:06;;;;;;;7.90;7.10;;;14.30;99.90;;;;;;6242301;22;20401;-94
2021/10/05 09:03:50;;;;;;;7.20;6.30;;;14.10;99.90;;;;;;6245566;22;20416;-94
2021/10/05 09:06:16;;;;;;;6.23;5.63;;;13.80;99.90;;;;;;6244399;22;20400;-94
2021/10/05 09:08:43;;;;;;;6.73;6.07;;;13.80;99.90;;;;;;6245760;22;20413;-93
2021/10/05 09:11:11;;;;;;;7.53;6.73;;;13.90;99.90;;;;;;6245396;22;20907;-94
2021/10/05 09:13:40;;;;;;;6.63;6.03;;;14.10;99.90;;;;;;6245778;22;20474;-94
2021/10/05 09:16:26;;;;;;;5.80;5.30;;;14.10;99.90;;;;;;6245817;22;20867;-94
2021/10/05 09:18:52;;;;;;;5.00;4.40;;;14.20;99.90;;;;;;6244639;22;20396;-94
2021/10/05 09:21:17;;;;;;;4.93;4.30;;;14.30;99.90;;;;;;6245348;22;20828;-93
2021/10/05 09:24:04;;;;;;;5.80;5.30;;;14.30;99.90;;;;;;6245803;22;20173;-94
2021/10/05 09:26:35;;;;;;;4.83;4.43;;;14.40;99.90;;;;;;6244748;22;20158;-93
2021/10/05 09:29:13;;;;;;;5.23;4.80;;;14.60;99.90;;;;;;6245490;22;20405;-93
2021/10/05 09:31:46;;;;;;;4.90;4.50;;;14.60;99.90;;;;;;6245569;22;20850;-93
2021/10/05 09:34:12;;;;;;;4.60;4.20;;;14.90;99.90;;;;;;6245333;22;21057;-93
2021/10/05 09:36:37;;;;;;;4.50;4.10;;;14.90;99.90;;;;;;6243467;22;20432;-93
2021/10/05 09:39:03;;;;;;;4.07;3.67;;;15.00;99.90;;;;;;6252102;22;20604;-93
2021/10/05 09:41:28;;;;;;;3.60;3.30;;;15.20;99.90;;;;;;6248084;22;20192;-94
2021/10/05 09:44:03;;;;;;;3.67;3.37;;;15.10;99.90;;;;;;6243554;22;20211;-93
2021/10/05 09:46:33;;;;;;;3.83;3.53;;;15.50;99.90;;;;;;6244646;22;20169;-93
2021/10/05 09:49:09;;;;;;;3.70;2.67;;;15.50;99.90;;;;;;6244253;22;20400;-94
2021/10/05 09:51:35;;;;;;;2.57;2.30;;;15.40;99.90;;;;;;6244915;22;20411;-93
2021/10/05 09:54:01;;;;;;;3.50;2.50;;;15.50;99.90;;;;;;6244680;22;20385;-94
2021/10/05 09:56:29;;;;;;;2.00;1.90;;;15.40;99.90;;;;;;6245011;22;20427;-93
2021/10/05 09:58:59;;;;;;;1.80;1.70;;;15.40;99.90;;;;;;6244972;22;20774;-93
2021/10/05 10:01:26;;;;;;;8.13;6.90;;;15.60;99.90;;;;;;6269882;22;20408;-93
2021/10/05 10:03:52;;;;;;;2.20;2.10;;;15.80;99.90;;;;;;6245101;22;20400;-94
2021/10/05 10:06:18;;;;;;;2.33;1.77;;;15.80;99.90;;;;;;6245728;22;20424;-94
2021/10/05 10:08:56;;;;;;;1.93;1.83;;;16.10;99.90;;;;;;6244679;22;20443;-93
2021/10/05 10:11:23;;;;;;;1.73;1.63;;;16.10;99.90;;;;;;6244520;22;20440;-93
2021/10/05 10:13:50;;;;;;;1.90;1.80;;;16.20;99.90;;;;;;6244881;22;20420;-93
2021/10/05 10:16:17;;;;;;;2.00;1.90;;;16.60;99.90;;;;;;6245179;22;20409;-93
2021/10/05 10:19:09;;;;;;;2.47;2.27;;;17.00;99.90;;;;;;6245889;22;20399;-93
2021/10/05 10:21:39;;;;;;;2.77;2.57;;;16.80;99.90;;;;;;6241040;22;20862;-93
2021/10/05 10:24:13;;;;;;;3.53;3.23;;;17.00;99.90;;;;;;6244439;22;20393;-93
2021/10/05 10:26:43;;;;;;;3.00;2.70;;;16.90;99.90;;;;;;6244882;22;20393;-93
2021/10/05 10:29:11;;;;;;;3.90;3.60;;;17.10;99.90;;;;;;6244778;22;20397;-93
2021/10/05 10:31:39;;;;;;;2.30;2.10;;;17.00;99.90;;;;;;6244520;22;20413;-93
2021/10/05 10:34:07;;;;;;;2.70;2.50;;;17.10;99.90;;;;;;6245482;22;20419;-94
2021/10/05 10:36:40;;;;;;;2.07;1.87;;;17.00;99.90;;;;;;6244757;22;20400;-93
2021/10/05 10:39:08;;;;;;;2.00;1.90;;;16.70;99.90;;;;;;6244553;22;20404;-93
2021/10/05 10:41:35;;;;;;;2.20;2.00;;;16.40;99.90;;;;;;6245071;22;20400;-93
2021/10/05 10:44:06;;;;;;;2.23;2.13;;;16.30;99.90;;;;;;6244111;22;20393;-93
2021/10/05 10:46:35;;;;;;;2.13;2.03;;;16.00;99.90;;;;;;6244930;22;20411;-92
2021/10/05 10:49:07;;;;;;;2.47;2.10;;;15.80;99.90;;;;;;6246400;22;20393;-93
2021/10/05 10:51:46;;;;;;;3.33;3.03;;;15.80;99.90;;;;;;6246504;22;20742;-93
2021/10/05 10:54:15;;;;;;;1.97;1.87;;;16.00;99.90;;;;;;6245563;22;20782;-93
2021/10/05 10:56:43;;;;;;;2.10;2.00;;;16.00;99.90;;;;;;6247623;22;20407;-93
2021/10/05 10:59:13;;;;;;;1.70;1.60;;;16.00;99.90;;;;;;6247493;22;20397;-93
2021/10/05 11:01:46;;;;;;;2.50;2.00;;;16.00;99.90;;;;;;6246339;22;20417;-92
2021/10/05 11:04:16;;;;;;;2.40;2.20;;;16.00;99.90;;;;;;6245704;22;20852;-94
2021/10/05 11:06:53;;;;;;;1.93;1.80;;;16.20;99.90;;;;;;6244072;22;20392;-93
2021/10/05 11:09:21;;;;;;;2.03;1.93;;;15.80;99.90;;;;;;6253106;22;20393;-93
2021/10/05 11:11:57;;;;;;;1.80;1.70;;;15.50;99.90;;;;;;6250143;22;20400;-93
2021/10/05 11:14:28;;;;;;;1.70;1.60;;;15.50;99.90;;;;;;6245155;22;20476;-93
2021/10/05 11:16:59;;;;;;;1.97;1.87;;;15.60;99.90;;;;;;6246147;22;20409;-93
2021/10/05 11:19:28;;;;;;;2.60;2.00;;;15.60;99.90;;;;;;6245638;22;20898;-93
2021/10/05 11:21:54;;;;;;;3.73;3.43;;;15.60;99.90;;;;;;6273884;22;20417;-93
2021/10/05 11:24:20;;;;;;;2.17;2.00;;;15.60;99.90;;;;;;6245416;22;20401;-93
2021/10/05 11:26:51;;;;;;;3.00;1.83;;;15.90;99.90;;;;;;6245073;22;20436;-93
2021/10/05 11:29:25;;;;;;;1.80;1.70;;;15.80;99.90;;;;;;6245909;22;20613;-93
2021/10/05 11:31:59;;;;;;;2.10;1.90;;;15.60;99.90;;;;;;6245426;22;20404;-93
2021/10/05 11:34:25;;;;;;;1.30;1.30;;;15.60;99.90;;;;;;6244876;22;20393;-94
2021/10/05 11:36:52;;;;;;;1.60;1.50;;;15.80;99.90;;;;;;6246409;22;20767;-93
2021/10/05 11:39:24;;;;;;;1.50;1.40;;;16.00;99.90;;;;;;6246726;22;20450;-94
2021/10/05 11:41:56;;;;;;;1.50;1.30;;;16.30;99.90;;;;;;6245054;22;20397;-93
2021/10/05 11:44:23;;;;;;;1.37;1.20;;;16.20;99.90;;;;;;6245152;22;20390;-92
2021/10/05 11:46:53;;;;;;;2.07;1.60;;;16.20;99.90;;;;;;6245160;22;20408;-93
2021/10/05 11:49:20;;;;;;;1.30;1.20;;;16.30;99.90;;;;;;6247024;22;20417;-93
2021/10/05 11:51:46;;;;;;;1.43;1.33;;;16.20;99.90;;;;;;6246648;22;20408;-93
2021/10/05 11:54:23;;;;;;;1.80;0.97;;;16.10;99.90;;;;;;6246788;22;20385;-94
2021/10/05 11:56:50;;;;;;;1.37;1.30;;;16.00;99.90;;;;;;6244970;22;20712;-94
2021/10/05 11:59:26;;;;;;;1.17;1.13;;;16.10;99.90;;;;;;6245444;22;20407;-93
2021/10/05 12:01:58;;;;;;;1.93;1.30;;;16.20;99.90;;;;;;6246384;22;20418;-93
2021/10/05 12:04:28;;;;;;;1.20;1.20;;;16.20;99.90;;;;;;6243973;22;20393;-93
2021/10/05 12:07:03;;;;;;;1.17;1.07;;;16.30;99.90;;;;;;6273318;22;20719;-94
2021/10/05 12:09:30;;;;;;;1.47;1.37;;;16.20;99.90;;;;;;6245238;22;20754;-94
2021/10/05 12:12:05;;;;;;;1.60;1.50;;;16.30;99.90;;;;;;6246927;22;20740;-94
2021/10/05 12:14:52;;;;;;;1.30;1.20;;;16.20;99.90;;;;;;6245386;22;20418;-92
2021/10/05 12:17:19;;;;;;;1.47;1.37;;;16.20;99.90;;;;;;6244817;22;20404;-93
2021/10/05 12:19:58;;;;;;;1.40;1.30;;;16.20;99.90;;;;;;6245065;22;20393;-93
2021/10/05 12:22:35;;;;;;;1.60;1.50;;;16.20;99.90;;;;;;6245577;22;20726;-93
2021/10/05 12:25:16;;;;;;;1.40;1.30;;;16.30;99.90;;;;;;6245807;22;20393;-92
2021/10/05 12:27:48;;;;;;;1.83;1.30;;;16.50;99.90;;;;;;6245822;22;20739;-94
2021/10/05 12:30:21;;;;;;;1.73;1.30;;;16.70;99.90;;;;;;6245579;22;20437;-95
2021/10/05 12:32:49;;;;;;;1.00;1.00;;;16.70;99.90;;;;;;6245011;22;20416;-94
2021/10/05 12:35:35;;;;;;;0.80;0.80;;;16.60;99.90;;;;;;6245761;22;20483;-93
2021/10/05 12:38:03;;;;;;;1.13;1.03;;;16.90;99.90;;;;;;6247209;22;20411;-93
2021/10/05 12:41:00;;;;;;;1.50;1.40;;;17.30;99.90;;;;;;6254724;22;20403;-94
2021/10/05 12:43:35;;;;;;;1.07;1.07;;;17.60;99.90;;;;;;6228051;22;20484;-95
2021/10/05 12:46:05;;;;;;;2.00;1.00;;;17.40;99.90;;;;;;6245551;22;20396;-93
2021/10/05 12:48:31;;;;;;;1.23;1.03;;;17.60;99.90;;;;;;6244990;22;20392;-94
2021/10/05 12:50:57;;;;;;;1.13;1.13;;;17.70;99.90;;;;;;6271895;22;20432;-94
2021/10/05 12:53:23;;;;;;;1.20;1.20;;;17.60;99.90;;;;;;6246231;22;20477;-93
2021/10/05 12:55:48;;;;;;;1.13;1.03;;;17.40;99.90;;;;;;6244203;22;20585;-94
2021/10/05 12:58:16;;;;;;;1.33;1.10;;;17.30;99.90;;;;;;6219719;22;20186;-93
2021/10/05 13:00:43;;;;;;;1.10;1.10;;;17.20;99.90;;;;;;6245210;22;20599;-94